createdAt,value
2019-05-21T00:00:13.247Z,23.67
2019-05-21T00:00:59.302Z,24.00
2019-05-21T00:01:45.529Z,24.90
2019-05-21T00:02:31.627Z,25.10
2019-05-21T00:03:17.744Z,22.60
2019-05-21T00:04:03.869Z,21.70
2019-05-21T00:04:49.940Z,23.17
2019-05-21T00:05:36.241Z,22.13
2019-05-21T00:06:22.516Z,22.50
2019-05-21T00:07:08.855Z,23.87
2019-05-21T00:07:55.403Z,27.67
2019-05-21T00:08:41.933Z,26.90
2019-05-21T00:09:28.530Z,25.03
2019-05-21T00:10:14.919Z,27.40
2019-05-21T00:11:01.306Z,26.63
2019-05-21T00:11:47.772Z,25.40
2019-05-21T00:12:34.247Z,27.33
2019-05-21T00:13:20.775Z,24.50
2019-05-21T00:14:07.231Z,24.67
2019-05-21T00:14:53.129Z,29.50
2019-05-21T00:15:39.817Z,29.90
2019-05-21T00:16:25.998Z,29.57
2019-05-21T00:17:13.009Z,31.13
2019-05-21T00:17:59.291Z,32.27
2019-05-21T00:18:44.963Z,31.20
2019-05-21T00:19:31.152Z,30.97
2019-05-21T00:20:16.935Z,27.93
2019-05-21T00:21:02.696Z,28.90
2019-05-21T00:21:48.335Z,29.17
2019-05-21T00:22:34.153Z,31.10
2019-05-21T00:23:20.317Z,34.90
2019-05-21T00:24:06.488Z,32.33
2019-05-21T00:24:52.391Z,32.87
2019-05-21T00:25:38.577Z,31.10
2019-05-21T00:26:24.439Z,33.70
2019-05-21T00:27:10.702Z,31.13
2019-05-21T00:28:29.306Z,31.93
2019-05-21T00:29:51.800Z,28.27
2019-05-21T00:31:14.482Z,28.77
2019-05-21T00:32:36.449Z,30.97
2019-05-21T00:33:58.717Z,31.30
2019-05-21T00:35:22.458Z,29.03
2019-05-21T00:36:44.673Z,27.00
2019-05-21T00:38:06.995Z,27.30
2019-05-21T00:39:29.238Z,28.80
2019-05-21T00:40:51.629Z,30.53
2019-05-21T00:42:04.740Z,33.67
2019-05-21T00:42:50.712Z,33.40
2019-05-21T00:43:49.138Z,33.57
2019-05-21T00:44:39.206Z,29.50
2019-05-21T00:45:25.423Z,34.20
2019-05-21T00:46:11.619Z,35.20
2019-05-21T00:46:57.695Z,31.70
2019-05-21T00:47:43.760Z,30.90
2019-05-21T00:48:29.900Z,32.23
2019-05-21T00:49:15.647Z,35.73
2019-05-21T00:50:01.933Z,36.50
2019-05-21T00:50:48.327Z,34.47
2019-05-21T00:51:33.955Z,34.30
2019-05-21T00:52:19.659Z,35.53
2019-05-21T00:53:05.356Z,32.70
2019-05-21T00:53:51.489Z,35.73
2019-05-21T00:54:37.167Z,41.17
2019-05-21T00:55:23.396Z,38.00
2019-05-21T00:56:09.249Z,33.47
2019-05-21T00:56:54.952Z,34.97
2019-05-21T00:57:40.669Z,37.27
2019-05-21T00:58:26.434Z,40.00
2019-05-21T00:59:12.216Z,35.43
2019-05-21T00:59:57.930Z,32.40
2019-05-21T01:00:43.689Z,34.03
2019-05-21T01:01:29.335Z,31.40
2019-05-21T01:02:15.027Z,38.77
2019-05-21T01:03:01.021Z,32.37
2019-05-21T01:03:46.810Z,33.80
2019-05-21T01:04:32.755Z,31.53
2019-05-21T01:05:18.417Z,33.43
2019-05-21T01:06:04.359Z,32.43
2019-05-21T01:06:50.032Z,33.10
2019-05-21T01:07:35.740Z,37.97
2019-05-21T01:08:21.823Z,36.40
2019-05-21T01:09:07.611Z,34.53
2019-05-21T01:09:53.340Z,37.90
2019-05-21T01:10:39.545Z,34.23
2019-05-21T01:11:25.775Z,33.40
2019-05-21T01:12:11.479Z,37.60
2019-05-21T01:12:57.126Z,33.73
2019-05-21T01:13:43.177Z,36.57
2019-05-21T01:14:28.832Z,31.43
2019-05-21T01:15:14.476Z,34.27
2019-05-21T01:16:00.419Z,39.23
2019-05-21T01:16:46.091Z,36.13
2019-05-21T01:17:31.763Z,37.27
2019-05-21T01:18:17.471Z,34.80
2019-05-21T01:19:03.670Z,37.40
2019-05-21T01:19:49.440Z,39.73
2019-05-21T01:20:35.237Z,35.37
2019-05-21T01:21:21.019Z,33.73
2019-05-21T01:22:06.812Z,32.63
2019-05-21T01:22:52.541Z,39.77
2019-05-21T01:23:38.139Z,37.67
2019-05-21T01:24:23.887Z,34.67
2019-05-21T01:25:09.966Z,35.23
2019-05-21T01:25:55.851Z,36.60
2019-05-21T01:26:41.487Z,35.90
2019-05-21T01:27:27.164Z,32.33
2019-05-21T01:28:12.781Z,35.60
2019-05-21T01:28:58.940Z,36.67
2019-05-21T01:29:44.624Z,33.53
2019-05-21T01:30:30.777Z,34.17
2019-05-21T01:31:16.466Z,38.53
2019-05-21T01:32:02.330Z,44.10
2019-05-21T01:32:48.553Z,46.30
2019-05-21T01:33:34.889Z,48.67
2019-05-21T01:34:21.103Z,41.70
2019-05-21T01:35:16.625Z,39.23
2019-05-21T01:35:55.433Z,36.63
2019-05-21T01:36:41.204Z,35.97
2019-05-21T01:37:27.055Z,42.10
2019-05-21T01:38:13.076Z,36.17
2019-05-21T01:38:59.190Z,34.47
2019-05-21T01:39:45.379Z,36.37
2019-05-21T01:40:31.263Z,38.43
2019-05-21T01:41:17.152Z,41.87
2019-05-21T01:42:02.852Z,36.83
2019-05-21T01:42:49.035Z,34.33
2019-05-21T01:43:35.210Z,36.77
2019-05-21T01:44:21.442Z,39.93
2019-05-21T01:45:07.755Z,38.43
2019-05-21T01:45:53.720Z,38.67
2019-05-21T01:46:39.639Z,33.90
2019-05-21T01:47:25.395Z,38.17
2019-05-21T01:48:11.135Z,34.73
2019-05-21T01:48:56.900Z,37.47
2019-05-21T01:49:42.733Z,38.10
2019-05-21T01:50:28.504Z,37.90
2019-05-21T01:51:14.421Z,39.57
2019-05-21T01:52:00.121Z,39.03
2019-05-21T01:52:45.778Z,48.93
2019-05-21T01:53:31.558Z,41.53
2019-05-21T01:54:17.570Z,43.70
2019-05-21T01:55:03.628Z,40.27
2019-05-21T01:55:49.563Z,37.83
2019-05-21T01:56:35.596Z,48.60
2019-05-21T01:57:21.423Z,43.17
2019-05-21T01:58:07.801Z,41.17
2019-05-21T01:58:53.783Z,36.47
2019-05-21T01:59:40.315Z,39.80
2019-05-21T02:00:26.880Z,36.47
2019-05-21T02:01:13.218Z,39.37
2019-05-21T02:01:59.685Z,49.30
2019-05-21T02:02:45.780Z,43.77
2019-05-21T02:03:32.459Z,43.10
2019-05-21T02:04:19.093Z,41.00
2019-05-21T02:05:05.913Z,38.23
2019-05-21T02:05:52.451Z,44.30
2019-05-21T02:06:38.759Z,45.67
2019-05-21T02:07:25.439Z,47.17
2019-05-21T02:08:11.696Z,39.10
2019-05-21T02:08:58.110Z,44.03
2019-05-21T02:10:00.506Z,48.57
2019-05-21T02:10:46.915Z,44.60
2019-05-21T02:11:33.057Z,46.80
2019-05-21T02:12:18.740Z,42.93
2019-05-21T02:13:04.787Z,44.43
2019-05-21T02:13:50.900Z,39.67
2019-05-21T02:14:36.600Z,41.47
2019-05-21T02:15:22.797Z,47.07
2019-05-21T02:16:08.689Z,47.73
2019-05-21T02:16:54.784Z,42.03
2019-05-21T02:17:41.015Z,41.63
2019-05-21T02:18:26.650Z,41.17
2019-05-21T02:19:12.435Z,41.20
2019-05-21T02:19:58.153Z,53.97
2019-05-21T02:20:43.977Z,45.00
2019-05-21T02:21:29.822Z,46.30
2019-05-21T02:22:15.572Z,40.40
2019-05-21T02:23:01.810Z,38.40
2019-05-21T02:23:47.754Z,39.67
2019-05-21T02:24:33.612Z,42.17
2019-05-21T02:25:19.290Z,42.00
2019-05-21T02:26:05.192Z,37.57
2019-05-21T02:26:51.297Z,42.93
2019-05-21T02:27:36.950Z,34.37
2019-05-21T02:28:22.624Z,39.90
2019-05-21T02:29:08.343Z,38.33
2019-05-21T02:29:54.492Z,37.00
2019-05-21T02:30:40.327Z,43.37
2019-05-21T02:31:26.529Z,38.53
2019-05-21T02:32:12.264Z,38.17
2019-05-21T02:32:58.596Z,37.83
2019-05-21T02:33:44.801Z,37.90
2019-05-21T02:34:30.670Z,36.17
2019-05-21T02:35:16.443Z,37.57
2019-05-21T02:36:02.391Z,43.80
2019-05-21T02:36:47.958Z,45.40
2019-05-21T02:37:33.732Z,45.57
2019-05-21T02:38:20.011Z,47.80
2019-05-21T02:39:06.432Z,49.90
2019-05-21T02:39:52.335Z,45.83
2019-05-21T02:40:38.897Z,38.87
2019-05-21T02:41:25.292Z,37.87
2019-05-21T02:42:11.630Z,38.07
2019-05-21T02:42:57.610Z,45.13
2019-05-21T02:43:44.066Z,38.83
2019-05-21T02:44:30.212Z,39.27
2019-05-21T02:45:16.926Z,37.27
2019-05-21T02:46:03.224Z,38.60
2019-05-21T02:46:48.973Z,38.30
2019-05-21T02:47:34.663Z,45.83
2019-05-21T02:48:20.910Z,34.30
2019-05-21T02:49:06.669Z,36.17
2019-05-21T02:49:52.970Z,40.07
2019-05-21T02:50:38.697Z,37.57
2019-05-21T02:51:24.741Z,37.27
2019-05-21T02:52:10.613Z,38.47
2019-05-21T02:52:56.389Z,36.13
2019-05-21T02:53:42.403Z,45.77
2019-05-21T02:54:40.348Z,43.23
2019-05-21T02:55:15.798Z,42.87
2019-05-21T02:56:01.749Z,43.40
2019-05-21T02:56:47.855Z,43.47
2019-05-21T02:57:40.669Z,44.70
2019-05-21T02:58:26.804Z,35.73
2019-05-21T02:59:13.069Z,38.87
2019-05-21T03:00:01.074Z,35.33
2019-05-21T03:01:02.115Z,36.67
2019-05-21T03:01:56.708Z,40.37
2019-05-21T03:02:42.663Z,32.80
2019-05-21T03:03:29.734Z,41.93
2019-05-21T03:04:15.553Z,35.83
2019-05-21T03:05:01.259Z,35.27
2019-05-21T03:05:46.983Z,49.33
2019-05-21T03:06:32.753Z,42.77
2019-05-21T03:07:18.658Z,35.67
2019-05-21T03:08:04.902Z,36.87
2019-05-21T03:08:51.090Z,42.47
2019-05-21T03:09:37.216Z,43.67
2019-05-21T03:10:22.917Z,44.43
2019-05-21T03:11:08.912Z,36.73
2019-05-21T03:11:55.016Z,38.53
2019-05-21T03:12:40.843Z,37.33
2019-05-21T03:13:27.139Z,39.97
2019-05-21T03:14:13.249Z,42.27
2019-05-21T03:14:59.130Z,36.07
2019-05-21T03:15:45.329Z,44.33
2019-05-21T03:16:30.932Z,48.33
2019-05-21T03:17:16.647Z,45.27
2019-05-21T03:18:02.491Z,44.97
2019-05-21T03:18:48.235Z,57.97
2019-05-21T03:19:34.032Z,55.90
2019-05-21T03:20:19.948Z,53.47
2019-05-21T03:21:05.878Z,49.97
2019-05-21T03:21:51.615Z,43.43
2019-05-21T03:22:37.833Z,55.40
2019-05-21T03:23:23.425Z,53.60
2019-05-21T03:24:09.162Z,43.67
2019-05-21T03:24:55.286Z,52.80
2019-05-21T03:25:41.417Z,54.37
2019-05-21T03:26:27.103Z,50.13
2019-05-21T03:27:13.346Z,43.20
2019-05-21T03:27:59.483Z,44.43
2019-05-21T03:28:45.158Z,51.40
2019-05-21T03:29:30.918Z,48.07
2019-05-21T03:30:16.740Z,46.43
2019-05-21T03:31:03.102Z,49.73
2019-05-21T03:31:49.411Z,44.60
2019-05-21T03:32:35.609Z,63.67
2019-05-21T03:33:22.028Z,49.80
2019-05-21T03:34:08.299Z,51.83
2019-05-21T03:34:54.525Z,42.90
2019-05-21T03:35:40.844Z,54.37
2019-05-21T03:36:33.191Z,50.70
2019-05-21T03:37:14.843Z,45.80
2019-05-21T03:38:01.504Z,43.60
2019-05-21T03:38:48.067Z,43.47
2019-05-21T03:39:34.322Z,48.53
2019-05-21T03:40:20.576Z,44.63
2019-05-21T03:41:06.803Z,59.20
2019-05-21T03:41:53.236Z,55.73
2019-05-21T03:42:39.761Z,44.83
2019-05-21T03:43:25.961Z,55.47
2019-05-21T03:44:11.897Z,44.70
2019-05-21T03:45:00.327Z,43.33
2019-05-21T03:45:45.888Z,44.93
2019-05-21T03:46:33.219Z,38.00
2019-05-21T03:47:18.928Z,47.73
2019-05-21T03:48:05.134Z,44.83
2019-05-21T03:48:51.328Z,35.37
2019-05-21T03:49:36.996Z,44.00
2019-05-21T03:50:23.212Z,46.80
2019-05-21T03:51:09.694Z,52.37
2019-05-21T03:51:55.892Z,39.80
2019-05-21T03:52:41.991Z,37.70
2019-05-21T03:53:27.964Z,48.97
2019-05-21T03:54:14.263Z,52.00
2019-05-21T03:55:03.026Z,51.27
2019-05-21T03:55:49.174Z,54.73
2019-05-21T03:56:35.713Z,43.53
2019-05-21T03:57:21.435Z,42.23
2019-05-21T03:58:07.462Z,41.80
2019-05-21T03:58:53.773Z,48.33
2019-05-21T03:59:39.894Z,61.10
2019-05-21T04:00:26.595Z,48.23
2019-05-21T04:01:13.206Z,63.10
2019-05-21T04:01:59.280Z,63.63
2019-05-21T04:02:45.365Z,62.80
2019-05-21T04:03:31.370Z,55.27
2019-05-21T04:04:17.280Z,51.67
2019-05-21T04:05:04.777Z,60.80
2019-05-21T04:05:50.741Z,55.90
2019-05-21T04:06:51.292Z,55.77
2019-05-21T04:07:24.542Z,49.93
2019-05-21T04:08:10.191Z,52.87
2019-05-21T04:08:56.204Z,63.53
2019-05-21T04:09:42.109Z,57.93
2019-05-21T04:10:28.315Z,61.20
2019-05-21T04:11:14.366Z,58.20
2019-05-21T04:12:00.397Z,73.07
2019-05-21T04:13:05.130Z,66.10
2019-05-21T04:13:51.415Z,70.57
2019-05-21T04:14:41.992Z,66.27
2019-05-21T04:15:28.740Z,87.37
2019-05-21T04:16:21.825Z,84.70
2019-05-21T04:17:15.224Z,57.27
2019-05-21T04:18:05.208Z,74.53
2019-05-21T04:18:57.160Z,59.03
2019-05-21T04:19:42.991Z,59.87
2019-05-21T04:20:29.457Z,63.97
2019-05-21T04:21:15.927Z,62.13
2019-05-21T04:22:02.062Z,77.30
2019-05-21T04:22:53.866Z,73.27
2019-05-21T04:23:39.866Z,76.37
2019-05-21T04:24:26.420Z,68.20
2019-05-21T04:25:12.525Z,64.00
2019-05-21T04:25:59.049Z,62.20
2019-05-21T04:26:45.288Z,71.63
2019-05-21T04:27:31.922Z,66.20
2019-05-21T04:28:17.999Z,62.07
2019-05-21T04:29:05.265Z,98.77
2019-05-21T04:29:51.809Z,71.23
2019-05-21T04:30:38.006Z,60.70
2019-05-21T04:31:23.690Z,66.10
2019-05-21T04:32:09.583Z,67.80
2019-05-21T04:32:56.577Z,61.67
2019-05-21T04:33:42.667Z,116.33
2019-05-21T04:34:28.344Z,69.17
2019-05-21T04:35:13.941Z,57.23
2019-05-21T04:35:59.849Z,68.90
2019-05-21T04:36:45.570Z,70.87
2019-05-21T04:37:31.704Z,72.60
2019-05-21T04:38:17.433Z,72.57
2019-05-21T04:39:05.083Z,78.90
2019-05-21T04:39:51.162Z,61.30
2019-05-21T04:40:37.125Z,72.33
2019-05-21T04:41:22.848Z,96.33
2019-05-21T04:42:08.539Z,70.90
2019-05-21T04:42:54.255Z,66.80
2019-05-21T04:43:40.495Z,75.23
2019-05-21T04:44:29.986Z,68.10
2019-05-21T04:45:15.935Z,109.13
2019-05-21T04:46:01.773Z,95.43
2019-05-21T04:46:48.144Z,71.00
2019-05-21T04:47:34.387Z,63.73
2019-05-21T04:48:20.653Z,65.13
2019-05-21T04:49:06.782Z,62.77
2019-05-21T04:49:52.887Z,73.50
2019-05-21T04:50:38.910Z,84.00
2019-05-21T04:51:25.275Z,70.93
2019-05-21T04:52:11.207Z,62.10
2019-05-21T04:52:56.960Z,65.87
2019-05-21T04:53:42.983Z,76.63
2019-05-21T04:54:29.247Z,62.07
2019-05-21T04:55:15.469Z,62.73
2019-05-21T04:56:01.208Z,61.43
2019-05-21T04:56:47.414Z,65.70
2019-05-21T04:57:37.156Z,63.60
2019-05-21T04:58:21.228Z,61.83
2019-05-21T04:59:06.893Z,64.30
2019-05-21T04:59:52.632Z,59.33
2019-05-21T05:00:38.367Z,62.23
2019-05-21T05:01:24.145Z,59.90
2019-05-21T05:02:09.914Z,80.17
2019-05-21T05:02:55.756Z,75.20
2019-05-21T05:03:41.567Z,78.43
2019-05-21T05:04:27.261Z,62.23
2019-05-21T05:05:13.137Z,65.57
2019-05-21T05:05:59.310Z,62.23
2019-05-21T05:06:45.102Z,58.23
2019-05-21T05:07:31.254Z,75.77
2019-05-21T05:08:17.423Z,61.50
2019-05-21T05:09:04.845Z,62.23
2019-05-21T05:09:50.834Z,58.13
2019-05-21T05:10:37.999Z,78.67
2019-05-21T05:11:24.391Z,66.10
2019-05-21T05:12:13.570Z,58.77
2019-05-21T05:12:59.478Z,58.83
2019-05-21T05:13:45.453Z,57.00
2019-05-21T05:14:31.787Z,59.63
2019-05-21T05:15:17.724Z,81.17
2019-05-21T05:16:04.579Z,79.03
2019-05-21T05:16:50.703Z,79.13
2019-05-21T05:17:36.799Z,77.93
2019-05-21T05:18:22.950Z,76.00
2019-05-21T05:19:08.639Z,65.57
2019-05-21T05:19:54.508Z,69.10
2019-05-21T05:20:40.624Z,77.97
2019-05-21T05:21:26.510Z,74.63
2019-05-21T05:22:12.675Z,74.57
2019-05-21T05:22:58.932Z,67.50
2019-05-21T05:23:46.370Z,58.10
2019-05-21T05:24:32.852Z,67.37
2019-05-21T05:25:19.304Z,60.30
2019-05-21T05:26:06.301Z,60.67
2019-05-21T05:26:52.631Z,75.93
2019-05-21T05:27:38.761Z,78.80
2019-05-21T05:28:25.068Z,72.27
2019-05-21T05:29:11.287Z,65.63
2019-05-21T05:29:57.713Z,67.33
2019-05-21T05:30:45.028Z,59.30
2019-05-21T05:31:31.000Z,67.57
2019-05-21T05:32:16.930Z,74.00
2019-05-21T05:33:02.972Z,58.30
2019-05-21T05:33:49.377Z,59.70
2019-05-21T05:34:35.766Z,74.77
2019-05-21T05:35:21.741Z,78.63
2019-05-21T05:36:08.433Z,72.37
2019-05-21T05:36:54.520Z,65.07
2019-05-21T05:37:45.244Z,66.60
2019-05-21T05:38:29.052Z,58.43
2019-05-21T05:39:15.459Z,81.47
2019-05-21T05:40:01.671Z,68.83
2019-05-21T05:40:50.355Z,65.47
2019-05-21T05:41:39.129Z,79.70
2019-05-21T05:42:24.917Z,77.50
2019-05-21T05:43:11.148Z,75.40
2019-05-21T05:43:58.152Z,71.67
2019-05-21T05:44:43.929Z,66.93
2019-05-21T05:45:30.576Z,65.33
2019-05-21T05:46:16.495Z,75.63
2019-05-21T05:47:02.240Z,70.27
2019-05-21T05:47:48.332Z,78.50
2019-05-21T05:48:39.207Z,78.43
2019-05-21T05:49:30.768Z,75.83
2019-05-21T05:50:18.569Z,74.27
2019-05-21T05:51:05.278Z,80.37
2019-05-21T05:51:51.498Z,79.23
2019-05-21T05:52:37.572Z,74.03
2019-05-21T05:53:23.663Z,70.57
2019-05-21T05:54:09.861Z,73.43
2019-05-21T05:54:56.012Z,86.17
2019-05-21T05:55:41.614Z,67.40
2019-05-21T05:56:28.236Z,70.87
2019-05-21T05:57:14.333Z,68.97
2019-05-21T05:58:00.031Z,68.30
2019-05-21T05:58:45.732Z,73.93
2019-05-21T05:59:31.472Z,65.20
2019-05-21T06:00:18.219Z,69.90
2019-05-21T06:01:04.011Z,76.13
2019-05-21T06:01:49.779Z,79.33
2019-05-21T06:02:35.593Z,78.77
2019-05-21T06:03:21.438Z,73.87
2019-05-21T06:04:07.356Z,76.30
2019-05-21T06:04:53.696Z,80.63
2019-05-21T06:05:39.850Z,92.63
2019-05-21T06:06:25.515Z,79.77
2019-05-21T06:07:11.252Z,79.00
2019-05-21T06:08:00.105Z,76.13
2019-05-21T06:08:44.993Z,93.20
2019-05-21T06:09:30.635Z,86.87
2019-05-21T06:10:16.273Z,90.00
2019-05-21T06:11:02.153Z,89.57
2019-05-21T06:11:47.804Z,85.90
2019-05-21T06:12:33.453Z,81.83
2019-05-21T06:13:19.150Z,89.17
2019-05-21T06:14:04.815Z,87.63
2019-05-21T06:14:50.603Z,96.27
2019-05-21T06:15:36.287Z,84.27
2019-05-21T06:16:22.576Z,82.57
2019-05-21T06:17:08.874Z,86.60
2019-05-21T06:17:54.695Z,84.07
2019-05-21T06:18:40.396Z,76.83
2019-05-21T06:19:26.603Z,83.47
2019-05-21T06:20:12.899Z,77.10
2019-05-21T06:20:58.596Z,81.60
2019-05-21T06:21:44.921Z,83.43
2019-05-21T06:22:30.871Z,82.37
2019-05-21T06:23:18.410Z,85.73
2019-05-21T06:24:04.724Z,83.07
2019-05-21T06:24:51.128Z,77.60
2019-05-21T06:25:37.126Z,93.13
2019-05-21T06:26:23.048Z,100.27
2019-05-21T06:27:09.430Z,86.63
2019-05-21T06:27:55.324Z,80.13
2019-05-21T06:28:41.840Z,80.43
2019-05-21T06:29:28.212Z,94.43
2019-05-21T06:30:14.403Z,81.80
2019-05-21T06:31:00.334Z,81.90
2019-05-21T06:31:46.401Z,78.63
2019-05-21T06:32:32.894Z,80.03
2019-05-21T06:33:19.038Z,87.83
2019-05-21T06:34:05.167Z,76.37
2019-05-21T06:34:52.043Z,76.30
2019-05-21T06:35:38.407Z,73.30
2019-05-21T06:36:24.510Z,88.90
2019-05-21T06:37:11.123Z,75.10
2019-05-21T06:37:57.572Z,72.97
2019-05-21T06:38:44.100Z,83.90
2019-05-21T06:39:30.003Z,91.00
2019-05-21T06:40:16.593Z,75.57
2019-05-21T06:41:02.655Z,70.17
2019-05-21T06:41:48.773Z,80.47
2019-05-21T06:42:34.464Z,80.53
2019-05-21T06:43:20.087Z,78.20
2019-05-21T06:44:06.335Z,77.97
2019-05-21T06:44:52.198Z,78.80
2019-05-21T06:45:38.179Z,73.93
2019-05-21T06:46:24.283Z,71.07
2019-05-21T06:47:09.994Z,73.80
2019-05-21T06:47:55.735Z,79.63
2019-05-21T06:48:41.520Z,81.57
2019-05-21T06:49:27.876Z,80.43
2019-05-21T06:50:13.733Z,75.23
2019-05-21T06:51:00.033Z,68.93
2019-05-21T06:51:46.371Z,68.67
2019-05-21T06:52:32.125Z,67.63
2019-05-21T06:53:18.238Z,64.73
2019-05-21T06:54:04.296Z,69.60
2019-05-21T06:54:50.029Z,67.00
2019-05-21T06:55:36.169Z,67.03
2019-05-21T06:56:22.340Z,73.73
2019-05-21T06:57:08.025Z,65.13
2019-05-21T06:57:54.134Z,74.57
2019-05-21T06:58:41.879Z,64.10
2019-05-21T06:59:27.778Z,65.90
2019-05-21T07:00:15.702Z,64.13
2019-05-21T07:01:01.979Z,62.07
2019-05-21T07:01:48.377Z,61.47
2019-05-21T07:02:34.711Z,67.47
2019-05-21T07:03:21.026Z,60.23
2019-05-21T07:04:06.904Z,60.10
2019-05-21T07:04:52.812Z,64.27
2019-05-21T07:05:38.886Z,61.97
2019-05-21T07:06:25.226Z,59.53
2019-05-21T07:07:11.138Z,62.27
2019-05-21T07:07:58.568Z,59.30
2019-05-21T07:08:44.987Z,59.57
2019-05-21T07:09:30.940Z,59.40
2019-05-21T07:10:17.200Z,60.97
2019-05-21T07:11:03.910Z,65.33
2019-05-21T07:11:50.129Z,63.83
2019-05-21T07:12:36.116Z,64.23
2019-05-21T07:13:22.023Z,67.80
2019-05-21T07:14:07.897Z,63.90
2019-05-21T07:14:54.326Z,54.30
2019-05-21T07:15:40.829Z,59.03
2019-05-21T07:16:26.592Z,70.43
2019-05-21T07:17:12.621Z,57.23
2019-05-21T07:17:59.148Z,59.17
2019-05-21T07:18:45.498Z,65.73
2019-05-21T07:19:31.439Z,59.10
2019-05-21T07:20:18.493Z,55.13
2019-05-21T07:21:04.688Z,65.73
2019-05-21T07:21:51.014Z,63.43
2019-05-21T07:22:37.199Z,61.93
2019-05-21T07:23:23.192Z,59.30
2019-05-21T07:24:08.778Z,56.40
2019-05-21T07:24:54.359Z,59.87
2019-05-21T07:25:40.195Z,60.10
2019-05-21T07:26:25.920Z,58.33
2019-05-21T07:27:11.733Z,58.63
2019-05-21T07:27:58.054Z,56.73
2019-05-21T07:28:43.770Z,55.73
2019-05-21T07:29:29.860Z,65.80
2019-05-21T07:30:18.924Z,54.43
2019-05-21T07:31:05.345Z,59.07
2019-05-21T07:31:51.320Z,62.63
2019-05-21T07:32:37.340Z,56.17
2019-05-21T07:33:23.454Z,57.27
2019-05-21T07:34:09.155Z,61.63
2019-05-21T07:34:54.797Z,54.43
2019-05-21T07:35:40.499Z,59.13
2019-05-21T07:36:26.515Z,59.37
2019-05-21T07:37:12.898Z,56.57
2019-05-21T07:37:59.267Z,54.47
2019-05-21T07:38:53.542Z,65.53
2019-05-21T07:39:32.828Z,60.53
2019-05-21T07:40:19.081Z,58.70
2019-05-21T07:41:05.083Z,58.57
2019-05-21T07:41:51.484Z,53.43
2019-05-21T07:42:37.499Z,55.47
2019-05-21T07:43:25.443Z,55.90
2019-05-21T07:44:11.716Z,62.30
2019-05-21T07:44:57.898Z,54.27
2019-05-21T07:45:45.507Z,58.70
2019-05-21T07:46:31.579Z,57.43
2019-05-21T07:47:18.127Z,58.60
2019-05-21T07:48:04.415Z,60.23
2019-05-21T07:48:51.577Z,57.53
2019-05-21T07:49:38.096Z,55.93
2019-05-21T07:50:24.442Z,57.33
2019-05-21T07:51:10.804Z,55.97
2019-05-21T07:51:57.333Z,61.83
2019-05-21T07:52:44.463Z,61.73
2019-05-21T07:53:30.921Z,58.43
2019-05-21T07:54:17.633Z,60.00
2019-05-21T07:55:04.537Z,57.07
2019-05-21T07:55:50.987Z,57.60
2019-05-21T07:56:37.316Z,59.20
2019-05-21T07:57:23.683Z,56.50
2019-05-21T07:58:10.898Z,53.80
2019-05-21T07:58:57.287Z,54.13
2019-05-21T07:59:43.687Z,61.23
2019-05-21T08:00:29.384Z,56.33
2019-05-21T08:01:16.508Z,55.30
2019-05-21T08:02:02.751Z,59.90
2019-05-21T08:02:49.125Z,54.77
2019-05-21T08:03:36.129Z,60.47
2019-05-21T08:04:22.280Z,59.83
2019-05-21T08:05:08.724Z,56.67
2019-05-21T08:05:54.829Z,57.13
2019-05-21T08:06:40.775Z,58.43
2019-05-21T08:07:26.748Z,55.97
2019-05-21T08:08:12.763Z,56.77
2019-05-21T08:09:12.766Z,56.40
2019-05-21T08:09:46.585Z,57.77
2019-05-21T08:10:32.964Z,57.27
2019-05-21T08:11:18.883Z,57.87
2019-05-21T08:12:22.788Z,59.67
2019-05-21T08:12:53.311Z,49.83
2019-05-21T08:13:39.198Z,52.40
2019-05-21T08:14:25.670Z,68.00
2019-05-21T08:15:11.922Z,59.00
2019-05-21T08:15:57.612Z,59.90
2019-05-21T08:16:43.564Z,55.40
2019-05-21T08:17:31.347Z,59.67
2019-05-21T08:18:17.790Z,57.53
2019-05-21T08:19:03.962Z,55.97
2019-05-21T08:19:50.044Z,48.97
2019-05-21T08:20:35.805Z,59.93
2019-05-21T08:21:22.115Z,58.53
2019-05-21T08:22:07.977Z,52.97
2019-05-21T08:22:53.801Z,57.37
2019-05-21T08:23:40.173Z,50.87
2019-05-21T08:24:26.475Z,45.17
2019-05-21T08:25:14.689Z,48.83
2019-05-21T08:26:00.774Z,46.43
2019-05-21T08:26:47.193Z,45.90
2019-05-21T08:27:33.197Z,49.30
2019-05-21T08:28:19.629Z,47.43
2019-05-21T08:29:06.895Z,47.93
2019-05-21T08:29:54.296Z,49.03
2019-05-21T08:30:40.463Z,47.07
2019-05-21T08:31:26.384Z,45.40
2019-05-21T08:32:12.539Z,50.00
2019-05-21T08:32:58.657Z,50.43
2019-05-21T08:33:44.991Z,47.93
2019-05-21T08:34:32.102Z,51.50
2019-05-21T08:35:18.230Z,50.70
2019-05-21T08:36:05.860Z,49.87
2019-05-21T08:36:51.772Z,50.00
2019-05-21T08:37:37.417Z,49.67
2019-05-21T08:38:23.448Z,50.30
2019-05-21T08:39:09.541Z,51.03
2019-05-21T08:39:55.675Z,55.37
2019-05-21T08:40:41.446Z,48.70
2019-05-21T08:41:27.666Z,47.73
2019-05-21T08:42:13.470Z,49.53
2019-05-21T08:42:59.953Z,47.60
2019-05-21T08:43:46.240Z,50.10
2019-05-21T08:44:32.775Z,50.87
2019-05-21T08:45:19.619Z,53.73
2019-05-21T08:46:06.239Z,56.03
2019-05-21T08:46:52.279Z,59.53
2019-05-21T08:47:38.879Z,47.30
2019-05-21T08:48:25.416Z,53.17
2019-05-21T08:49:11.872Z,48.30
2019-05-21T08:49:58.354Z,52.50
2019-05-21T08:50:46.943Z,50.80
2019-05-21T08:51:33.441Z,54.40
2019-05-21T08:52:19.527Z,51.07
2019-05-21T08:53:05.668Z,49.83
2019-05-21T08:53:51.784Z,49.77
2019-05-21T08:54:48.009Z,49.60
2019-05-21T08:55:34.174Z,51.67
2019-05-21T08:56:20.327Z,59.13
2019-05-21T08:57:06.351Z,48.87
2019-05-21T08:58:06.591Z,55.73
2019-05-21T08:58:40.050Z,50.23
2019-05-21T08:59:26.007Z,44.53
2019-05-21T09:00:15.865Z,48.00
2019-05-21T09:01:01.672Z,48.50
2019-05-21T09:01:47.797Z,45.23
2019-05-21T09:02:33.851Z,49.97
2019-05-21T09:03:19.922Z,56.40
2019-05-21T09:04:05.957Z,57.43
2019-05-21T09:04:51.996Z,53.67
2019-05-21T09:05:38.294Z,54.37
2019-05-21T09:06:24.446Z,48.63
2019-05-21T09:07:10.627Z,49.27
2019-05-21T09:07:56.712Z,50.03
2019-05-21T09:08:42.822Z,43.77
2019-05-21T09:09:47.903Z,51.13
2019-05-21T09:10:16.207Z,43.53
2019-05-21T09:11:02.259Z,48.07
2019-05-21T09:11:47.994Z,38.23
2019-05-21T09:12:33.677Z,41.37
2019-05-21T09:13:19.323Z,39.77
2019-05-21T09:14:05.420Z,39.07
2019-05-21T09:14:51.110Z,35.57
2019-05-21T09:15:37.304Z,42.13
2019-05-21T09:16:22.896Z,42.63
2019-05-21T09:17:08.555Z,42.63
2019-05-21T09:17:54.331Z,34.73
2019-05-21T09:18:40.707Z,37.53
2019-05-21T09:19:26.952Z,39.03
2019-05-21T09:20:13.221Z,43.43
2019-05-21T09:20:59.357Z,41.57
2019-05-21T09:21:45.063Z,38.17
2019-05-21T09:22:30.777Z,35.00
2019-05-21T09:23:16.972Z,37.47
2019-05-21T09:24:02.629Z,35.27
2019-05-21T09:24:48.266Z,34.83
2019-05-21T09:25:34.343Z,36.20
2019-05-21T09:26:20.013Z,39.03
2019-05-21T09:27:05.702Z,42.97
2019-05-21T09:27:51.920Z,44.40
2019-05-21T09:28:37.792Z,34.27
2019-05-21T09:29:23.963Z,40.73
2019-05-21T09:30:10.406Z,35.80
2019-05-21T09:30:56.254Z,35.03
2019-05-21T09:31:41.936Z,33.57
2019-05-21T09:32:27.718Z,38.33
2019-05-21T09:33:13.991Z,34.23
2019-05-21T09:33:59.831Z,31.53
2019-05-21T09:34:49.044Z,38.30
2019-05-21T09:35:33.736Z,34.27
2019-05-21T09:36:19.528Z,32.50
2019-05-21T09:37:18.517Z,34.03
2019-05-21T09:37:55.225Z,34.97
2019-05-21T09:38:41.576Z,39.43
2019-05-21T09:39:27.986Z,34.60
2019-05-21T09:40:14.308Z,36.33
2019-05-21T09:41:00.100Z,31.83
2019-05-21T09:41:45.733Z,32.23
2019-05-21T09:42:31.423Z,33.90
2019-05-21T09:43:17.081Z,34.77
2019-05-21T09:44:03.095Z,31.47
2019-05-21T09:44:49.094Z,35.10
2019-05-21T09:45:35.181Z,34.13
2019-05-21T09:46:21.367Z,33.17
2019-05-21T09:47:07.044Z,32.50
2019-05-21T09:47:53.972Z,33.57
2019-05-21T09:48:39.971Z,33.57
2019-05-21T09:49:25.786Z,36.37
2019-05-21T09:50:12.160Z,36.53
2019-05-21T09:50:58.316Z,33.43
2019-05-21T09:51:44.344Z,40.43
2019-05-21T09:52:30.456Z,34.77
2019-05-21T09:53:16.313Z,33.73
2019-05-21T09:54:02.538Z,38.37
2019-05-21T09:54:48.712Z,41.73
2019-05-21T09:55:34.871Z,37.83
2019-05-21T09:56:32.675Z,39.47
2019-05-21T09:57:25.178Z,35.93
2019-05-21T09:58:28.876Z,33.37
2019-05-21T09:59:24.863Z,34.10
2019-05-21T10:00:37.213Z,32.37
2019-05-21T10:01:32.262Z,37.37
2019-05-21T10:02:20.936Z,33.73
2019-05-21T10:03:09.042Z,35.30
2019-05-21T10:03:56.521Z,33.40
2019-05-21T10:04:42.515Z,34.07